FIFA 20 (Xbox One), Road to Video Games, roadtovideogames.com

FIFA 20 (Xbox One)

€59.00
  • Description

    This game represents authentic culture, creativity, and style, combined with all your favorite football elements. As always, FIFA 20 presents the collection of best football players from across the globe. This version comes with an abundance of new options and features. Authentic game flow enables AI-controlled players to perform better in regards to time, spatial awareness, and position on the pitch.

    FIFA 20 has implemented a new Ball Physics System that makes the whole gameplay much more realistic. Some of the benefits include improved shot trajectories, realistic tackles, and physics-driven player behavior. There’s also a new VOLTA football mode that allows users to build teams, pick suitable gear, and express their playing style on the streets.

    What makes this edition particularly interesting is the fact that users will be able to choose between various street football fields from across the globe. This provides them with an outstanding cultural experience and exchange. You might even find your local football field in this game, who knows?

    When it comes to playing options, users can choose between 3v3 Rush (No GK’s), 4v4, 4v4 Rush, 5v5, and Profesional Futsal. Moreover, FIFA 20 allows players to select different arena sizes. Not only that, but they can choose whether they’d like to play in open or closed environments.

    If players want extra FIFA points, they can purchase them directly on FIFA’s website, as per usual. They can choose between 100, 250, 500, 750, 1050, 2200, 4600, and 12000 FIFA point add-ons.

News

Ofertas Black Friday de Xbox: FIFA 23, Deathloop, LEGO Star Wars The Skywalker Saga y más
Ofertas Black Friday de Xbox: FIFA 23, Deathloop, LEGO Star Wars The Skywalker Saga y más

Seleccionamos algunas de las ofertas más destacadas que han llegado a la tienda de Xbox Series X/S y Xbox One con motivo del Black Friday.La tienda digital de Xbox Series X/S y Xbox One ya se ha actualizado con nuevas ofertas del Black Friday, una promoción que nos permite hacernos con todo tipo de juegos digitales por debajo de su precio habitual. Hay tantos descuentos que en Vandal hemos seleccionado algunas de las rebajas más destacadas. Podéis verlas a continuación:

  • FIFA 23 (Xbox Series) 47,99 €
  • FIFA 23 (Xbox One) 41,99 €
  • F1 22 (Xbox Series) 39,99 €
  • NBA 2K23 (Xbox Series) 33,99 €
  • Dying Light 2 34,99 €
  • Cyberpunk 2077 34,99 €
  • F1 22 (Xbox One) 34,99 €
  • NBA 2K23 (Xbox One) 31,49 €
  • Resident Evil Village 29,99 €
  • LEGO Star Wars: The Skywalker Saga 29,99 €
  • Hitman 3 24,49 €
  • Marvel's Guardians of the Galaxy 24,49 €
  • Lost Judgment 23,99 €
  • Deathloop 23,09 €
  • Assassin's Creed Valhalla 23,09 €
  • Far Cry 6 23,09 €
  • Mass Effect Legendary Edition 20,99 €
  • Yakuza: Like a Dragon 20,99 €
  • Diablo II: Resurrected 19,99 €
  • Borderlands 3 17,49 €
  • Dragon Ball Z: Kakarot 17,49 €
  • Immortals Fenyx Rising 17,49 €
  • Scarlet Nexus 17,49 €
  • It Takes Two 15,99 €
  • Gears 5 13,19 €
  • Gears Tactics 13,19 €
  • Injustice 2 11,99 €
  • Ace Combat 7: Skies Unknown 10,49 €
  • DOOM Eternal 9,99 €
  • Little Nightmares II 9,89 €
  • Metro Exodus 7,49 €
Además de todas estas ofertas destacadas, en la tienda de Xbox podemos encontrar muchos más juegos digitales rebajados. Podéis ver la lista completa de todos los descuentos disponibles actualmente a continuación:Todas las ofertas para Usuarios Gold
Juego ó packPrecioOfertaDto.
A Plague Tale: Requiem Hasta 10:59 29/11/2022 59.99 €47.99 €20%
Aery - Calm Mind 2 Hasta 10:59 29/11/2022 9.99 €6.69 €33%
Battle Brothers - Complete Edition Hasta 10:59 29/11/2022 58.99 €35.39 €40%
BPM: Bullets Per Minute Hasta 10:59 29/11/2022 24.99 €14.99 €40%
Curse of the Dead Gods Hasta 10:59 29/11/2022 19.99 €7.99 €60%
Donut County Hasta 10:59 29/11/2022 12.99 €3.89 €70%
Dungeon Defenders: Awakened Hasta 10:59 29/11/2022 29.99 €19.49 €35%
Dyna Bomb 2 Hasta 10:59 29/11/2022 14.99 €9.74 €35%
Evil Genius 2: World Domination Hasta 10:59 29/11/2022 39.99 €15.99 €60%
Far Cry 4 Hasta 00:59 29/11/2022 29.99 €9.89 €67%
Far Cry Primal - Apex Edition Hasta 10:59 29/11/2022 34.99 €11.54 €67%
Fishing Sim World : Pro Tour Deluxe Edition Hasta 10:59 29/11/2022 24.99 €7.49 €70%
Hardspace: Shipbreaker Hasta 10:59 29/11/2022 39.99 €29.99 €25%
Hasbro Family Fun Pack - Super Edition Hasta 10:59 29/11/2022 59.99 €14.99 €75%
Hell Let Loose Hasta 10:59 29/11/2022 39.99 €23.99 €40%
HITMAN 2: Edición Gold Hasta 10:59 29/11/2022 99.99 €14.99 €85%
Insurgency: Sandstorm - Gold Edition Hasta 00:59 29/11/2022 79.99 €39.99 €50%
Masters of Anima Hasta 10:59 29/11/2022 6.99 €1.39 €80%
Mokoko X Hasta 10:59 29/11/2022 11.49 €6.89 €40%
Moons of Madness Hasta 10:59 29/11/2022 29.99 €14.99 €50%
MudRunner - American Wilds Edition Hasta 10:59 29/11/2022 34.99 €8.74 €75%
Paquete Orcs Must Die! 3 Hasta 10:59 29/11/2022 39.99 €19.99 €50%
Rise Eterna Hasta 10:59 29/11/2022 19.99 €1.99 €90%
Ruinverse Hasta 10:59 29/11/2022 14.99 €8.24 €45%
Shadow Warrior 3 Hasta 10:59 29/11/2022 39.99 €19.99 €50%
Slipstream Hasta 10:59 29/11/2022 8.99 €6.29 €30%
South Park : Los Venganales de la Justicia - Gold Edition Hasta 10:59 29/11/2022 79.99 €23.99 €70%
STAR OCEAN THE DIVINE FORCE Hasta 10:59 29/11/2022 69.99 €55.99 €20%
Superliminal Hasta 10:59 29/11/2022 19.99 €9.99 €50%
The Catch: Carp & Coarse - Deluxe Edition Hasta 10:59 29/11/2022 29.99 €8.99 €70%
The Council - Complete Season Hasta 10:59 29/11/2022 14.99 €4.49 €70%
The Crew 2 Special Edition Hasta 10:59 29/11/2022 59.99 €11.99 €80%
The Darkside Detective - Series Edition Hasta 10:59 29/11/2022 22.99 €16.09 €30%
The Division 2 - Warlords of New York - Ultimate Edition Hasta 10:59 29/11/2022 79.99 €23.99 €70%
The Division 2 - Warlords of New York Edition Hasta 10:59 29/11/2022 59.99 €17.99 €70%
The Procession to Calvary Hasta 10:59 29/11/2022 14.99 €7.49 €50%
The Surge Hasta 10:59 29/11/2022 14.99 €4.49 €70%
Tom Clancy's Ghost Recon Breakpoint Gold Edition Hasta 10:59 29/11/2022 99.99 €24.99 €75%
Tom Clancy’s Ghost Recon Wildlands - Standard Edition Hasta 10:59 29/11/2022 49.99 €12.49 €75%
Turnip Boy Commits Tax Evasion Hasta 10:59 29/11/2022 14.99 €10.04 €33%
TY el Tigre de Tasmania 2: Rescate Agreste HD Hasta 10:59 29/11/2022 27.99 €13.99 €50%
UNO Ultimate Edition Hasta 10:59 29/11/2022 19.99 €7.99 €60%
Unpacking Hasta 10:59 29/11/2022 19.99 €13.99 €30%
Todas las ofertas para usuarios estándar
Juego ó packPrecioOfertaDto.
11-11 Memories Retold Hasta 10:59 01/12/2022 24.99 €3.74 €85%
A Memoir Blue Hasta 10:59 29/11/2022 7.99 €5.99 €25%
A Way Out Hasta 10:59 01/12/2022 29.99 €5.99 €80%
A.O.T. 2 Hasta 10:59 01/12/2022 69.98 €34.99 €50%
A.O.T. 2 Deluxe Edition Hasta 10:59 01/12/2022 109.98 €54.99 €50%
A.O.T. 2: Final Battle Hasta 10:59 01/12/2022 69.98 €38.48 €45%
ACE COMBAT 7: SKIES UNKNOWN Hasta 10:59 01/12/2022 69.98 €10.49 €85%
Aces of the Luftwaffe Squadron - Extended Edition Hasta 10:59 01/12/2022 24.99 €7.49 €70%
An Airport for Aliens Currently Run by Dogs Hasta 10:59 29/11/2022 19.99 €11.99 €40%
Ancestors: The Humankind Odyssey Hasta 10:59 01/12/2022 39.99 €9.99 €75%
Anthem Hasta 10:59 01/12/2022 69.99 €6.99 €90%
Anthem : edición Legión del Alba Hasta 10:59 01/12/2022 79.99 €7.99 €90%
Arcade Classics Anniversary Collection Hasta 10:59 01/12/2022 19.98 €3.99 €80%
ARCADE GAME SERIES 3-in-1 Pack Hasta 10:59 01/12/2022 7.98 €3.99 €50%
Are You Smarter Than A 5th Grader? Hasta 10:59 01/12/2022 29.99 €23.99 €20%
Arise: A simple story Hasta 10:59 29/11/2022 19.99 €7.99 €60%
ARK: Ultimate Survivor Edition Hasta 10:59 01/12/2022 49.99 €24.99 €50%
Ary and the Secret of Seasons Hasta 10:59 01/12/2022 39.99 €5.99 €85%
As Dusk Falls Hasta 10:59 01/12/2022 29.99 €14.99 €50%
As Far As The Eye Hasta 10:59 25/11/2022 24.99 €22.49 €10%
Ashen: Definitive Edition Hasta 10:59 01/12/2022 47.99 €14.39 €70%
Assassin's Creed III Remastered Hasta 10:59 01/12/2022 39.99 €15.99 €60%
Assassin's Creed IV Black Flag Hasta 10:59 01/12/2022 19.99 €7.99 €60%
Assassin's Creed Mythology pack Hasta 10:59 01/12/2022 189.99 €56.99 €70%
Assassin's Creed Odyssey Hasta 10:59 01/12/2022 69.99 €17.49 €75%
Assassin's Creed Odyssey - DELUXE EDITION Hasta 10:59 01/12/2022 84.99 €21.24 €75%
Assassin's Creed Odyssey - GOLD EDITION Hasta 10:59 01/12/2022 99.99 €29.99 €70%
Assassin's Creed Origins Hasta 10:59 01/12/2022 69.99 €13.99 €80%
Assassin's Creed Origins - DELUXE EDITION Hasta 10:59 01/12/2022 79.99 €15.99 €80%
Assassin's Creed Origins - GOLD EDITION Hasta 10:59 01/12/2022 99.99 €24.99 €75%
Assassin's Creed Syndicate Hasta 10:59 01/12/2022 29.99 €8.99 €70%
Assassin's Creed The Ezio Collection Hasta 10:59 01/12/2022 49.99 €14.99 €70%
Assassin's Creed Unity Hasta 10:59 01/12/2022 29.99 €8.99 €70%
Assassin's Creed Valhalla Hasta 10:59 01/12/2022 69.99 €23.09 €67%
Assassin's Creed Valhalla + Immortals Fenyx Rising Bundle Hasta 10:59 01/12/2022 129.99 €42.89 €67%
Assassin's Creed Valhalla Complete Edition Hasta 10:59 01/12/2022 139.99 €48.99 €65%
Assassin's Creed Valhalla Deluxe Edition Hasta 10:59 01/12/2022 89.99 €29.69 €67%
Assassin's Creed Valhalla Ragnarök Edition Hasta 10:59 01/12/2022 99.99 €34.99 €65%
Assassin’s Creed Rogue Remastered Hasta 10:59 01/12/2022 29.99 €9.89 €67%
Assetto Corsa Hasta 10:59 01/12/2022 29.99 €5.99 €80%
Assetto Corsa Competizione Hasta 10:59 01/12/2022 39.99 €13.99 €65%
Autonauts Hasta 10:59 01/12/2022 19.99 €9.99 €50%
Back 4 Blood Hasta 10:59 01/12/2022 69.99 €23.09 €67%
Barn Finders Hasta 10:59 01/12/2022 19.99 €14.99 €25%
Bassmaster Fishing 2022: Deluxe Edition Hasta 10:59 01/12/2022 39.99 €11.99 €70%
Batman : Arkham Knight Hasta 10:59 01/12/2022 34.99 €10.49 €70%
Batman: Return to Arkham Hasta 10:59 01/12/2022 49.99 €12.49 €75%
Battlefield 1 Hasta 10:59 01/12/2022 19.99 €4.99 €75%
Battlefield 1 Revolution Hasta 10:59 01/12/2022 39.99 €7.99 €80%
Battlefield 2042 para Xbox One Hasta 16:59 22/11/2022 69.99 €27.99 €60%
Battlefield 2042 para Xbox One y Xbox Series X|S Hasta 10:59 01/12/2022 79.99 €31.99 €60%
Battlefield 2042 Ultimate Edition para Xbox One y Xbox Series X|S Hasta 10:59 01/12/2022 119.99 €71.99 €40%
Battlefield 4 Hasta 10:59 01/12/2022 19.99 €4.99 €75%
Battlefield Hardline Edición Definitiva Hasta 10:59 01/12/2022 39.99 €7.99 €80%
Battlefield Hardline edición Estándar Hasta 10:59 01/12/2022 19.99 €4.99 €75%
Battlefield V Definitive Edition Hasta 10:59 01/12/2022 49.99 €9.99 €80%
Battlefield V Standard Edition Hasta 10:59 01/12/2022 39.99 €5.99 €85%
Battletoads Hasta 10:59 01/12/2022 19.99 €4.99 €75%
Beast Quest Hasta 10:59 01/12/2022 19.99 €1.99 €90%
Ben 10 Lote Hasta 10:59 01/12/2022 49.99 €24.99 €50%
Best Month Ever! Hasta 10:59 29/11/2022 19.99 €13.99 €30%
BioShock: The Collection Hasta 10:59 01/12/2022 49.99 €9.99 €80%
Black Desert: Edición del conquistador Hasta 10:59 01/12/2022 99.99 €29.99 €70%
Black Desert: Edición del explorador Hasta 10:59 01/12/2022 49.99 €14.99 €70%
Black The Fall Hasta 10:59 01/12/2022 14.98 €4.49 €70%
Bleeding Edge Hasta 10:59 01/12/2022 29.99 €7.49 €75%
Bloodstained: Ritual of the Night Hasta 10:59 01/12/2022 39.99 €15.99 €60%
Borderlands 3 Hasta 10:59 01/12/2022 69.99 €17.49 €75%
Borderlands 3: Edición Súper Deluxe Hasta 10:59 01/12/2022 79.99 €26.39 €67%
Borderlands: Game of the Year Edition Hasta 10:59 01/12/2022 29.99 €9.89 €67%
Broken Age Hasta 10:59 01/12/2022 14.99 €3.74 €75%
Bulletstorm: Full Clip Edition Hasta 10:59 01/12/2022 36.99 €5.54 €85%
Butterflies Bundle Hasta 10:59 29/11/2022 7.99 €5.59 €30%
Call of Duty : Black Ops Cold War Hasta 10:59 01/12/2022 69.99 €23.09 €67%
Call of Duty : Black Ops Cold War - Lote Multigeneracional Hasta 10:59 01/12/2022 74.99 €29.99 €60%
Call of Duty : Modern Warfare - Edición Digital Estándar Hasta 10:59 01/12/2022 69.99 €23.09 €67%
Call of Duty : Vanguard - Edición Estándar Hasta 10:59 01/12/2022 69.99 €34.99 €50%
Call of Duty : Vanguard - Lote Multigeneración Hasta 10:59 01/12/2022 79.99 €39.99 €50%
Capcom Arcade 2nd Stadium Bundle Hasta 10:59 01/12/2022 39.99 €29.99 €25%
Capcom Arcade Stadium Pack 1: Dawn of the Arcade (’84 - ’88) Hasta 10:59 01/12/2022 14.98 €10.03 €33%
Capcom Arcade Stadium Pack 2: Arcade Revolution (’89 - ’92) Hasta 10:59 01/12/2022 14.98 €10.03 €33%
Capcom Arcade Stadium Pack 3: Arcade Evolution (’92 - ’01) Hasta 10:59 01/12/2022 14.98 €10.03 €33%
Capcom Arcade Stadium Packs 1, 2, and 3 Hasta 10:59 01/12/2022 39.98 €19.99 €50%
Capcom Fighting Collection Hasta 10:59 01/12/2022 39.99 €29.99 €25%
Carrera con Ryan viaje por carretera edición deluxe Hasta 10:59 01/12/2022 29.99 €11.99 €60%
Cars 3: Hacia la victoria Hasta 10:59 01/12/2022 59.99 €8.99 €85%
Cartoon Network: Battle Crashers Hasta 10:59 01/12/2022 29.99 €7.49 €75%
Castlevania Advance Collection Hasta 10:59 01/12/2022 19.99 €11.99 €40%
Castlevania Anniversary Collection Hasta 10:59 01/12/2022 19.98 €3.99 €80%
Cities: Skylines - Mayor's Edition Hasta 10:59 01/12/2022 99.99 €19.99 €80%
Cities: Skylines - Xbox One Edition Hasta 10:59 01/12/2022 39.99 €9.99 €75%
Citizen Sleeper Hasta 10:59 29/11/2022 19.99 €14.99 €25%
Cobra Kai: The Karate Kid Saga Continues Hasta 10:59 01/12/2022 39.99 €5.99 €85%
CODE SHIFTER Hasta 10:59 01/12/2022 16.99 €5.09 €70%
CODE VEIN Deluxe Edition Hasta 10:59 01/12/2022 89.99 €13.49 €85%
Colección Legendaria de Borderlands Hasta 10:59 01/12/2022 49.99 €19.99 €60%
Commandos 2 & 3 - HD Remaster Double Pack Hasta 10:59 01/12/2022 39.99 €33.99 €15%
Conan Exiles Hasta 10:59 01/12/2022 49.99 €14.99 €70%
Contenido extra Shadow of the Tomb Raider Definitive Edition Hasta 10:59 01/12/2022 39.99 €11.99 €70%
Contra Anniversary Collection Hasta 10:59 01/12/2022 19.98 €3.99 €80%
Control Hasta 10:59 01/12/2022 29.99 €8.99 €70%
Crackdown 3 Hasta 10:59 01/12/2022 29.99 €14.99 €50%
Crash 'n the Boys Street Challenge Hasta 10:59 01/12/2022 4.99 €3.49 €30%
Crazy Sports Bundle Hasta 10:59 01/12/2022 7.49 €1.49 €80%
Cricket 22 Hasta 10:59 01/12/2022 69.99 €34.99 €50%
Cris Tales Hasta 10:59 01/12/2022 39.99 €9.99 €75%
CrossfireX Paquete definitivo Hasta 10:59 01/12/2022 29.99 €25.49 €15%
Crossroads Inn Hasta 10:59 29/11/2022 29.99 €11.99 €60%
Crusader Kings III Hasta 10:59 01/12/2022 49.99 €37.49 €25%
Crysis Remastered Trilogy Hasta 10:59 01/12/2022 49.99 €29.99 €40%
Curved Space Hasta 10:59 01/12/2022 19.99 €2.99 €85%
Cyberpunk 2077 Hasta 10:59 01/12/2022 69.99 €34.99 €50%
DARK SOULS II: Scholar of the First Sin Hasta 10:59 01/12/2022 39.98 €19.99 €50%
DARK SOULS III Hasta 10:59 01/12/2022 69.98 €34.99 €50%
DARK SOULS III - Deluxe Edition Hasta 10:59 01/12/2022 94.98 €47.49 €50%
DARK SOULS: REMASTERED Hasta 10:59 01/12/2022 39.98 €19.99 €50%
Darksiders III Hasta 10:59 01/12/2022 39.99 €11.99 €70%
Dead Alliance Hasta 10:59 01/12/2022 29.99 €2.99 €90%
Dead by Daylight Hasta 10:59 01/12/2022 29.99 €11.99 €60%
Dead Island Definitive Edition Hasta 10:59 01/12/2022 19.99 €3.99 €80%
DEAD OR ALIVE 6 (Juego completo) Hasta 10:59 01/12/2022 69.98 €17.49 €75%
DEAD OR ALIVE 6 Digital Deluxe Edition Hasta 10:59 01/12/2022 84.99 €21.24 €75%
Dead Rising Hasta 10:59 01/12/2022 19.98 €5.99 €70%
Dead Rising 2 Hasta 10:59 01/12/2022 19.98 €5.99 €70%
Dead Rising 2 Off the Record Hasta 10:59 01/12/2022 19.98 €5.99 €70%
Dead Rising 3: Apocalypse Edition Hasta 10:59 01/12/2022 49.99 €14.99 €70%
Dead Rising 4 Hasta 10:59 01/12/2022 39.98 €9.99 €75%
Deadbeat Heroes Hasta 10:59 01/12/2022 14.98 €4.49 €70%
DEATHLOOP Hasta 10:59 01/12/2022 69.99 €23.09 €67%
DEATHLOOP Deluxe Edition Hasta 10:59 01/12/2022 89.99 €29.69 €67%
Deep Rock Galactic Hasta 10:59 01/12/2022 29.99 €14.99 €50%
Deep Rock Galactic - Deluxe Edition Hasta 10:59 01/12/2022 39.99 €19.99 €50%
Deep Rock Galactic - Ultimate Edition Hasta 10:59 01/12/2022 49.99 €24.99 €50%
Degrees of Separation Hasta 10:59 01/12/2022 19.99 €2.99 €85%
Deliver Us Mars Hasta 15:59 02/02/2023 29.99 €26.99 €10%
Desperados III Hasta 10:59 01/12/2022 39.99 €29.99 €25%
Destroy All Humans! 2 - Reprobed Hasta 10:59 01/12/2022 39.99 €31.99 €20%
Deus Ex: Mankind Divided Hasta 10:59 01/12/2022 29.99 €4.49 €85%
Deus Ex: Mankind Divided - Edición digital de lujo Hasta 10:59 01/12/2022 44.99 €6.74 €85%
Devil May Cry 4 Special Edition Hasta 10:59 01/12/2022 24.99 €7.49 €70%
Devil May Cry 5 + Vergil Hasta 10:59 01/12/2022 29.99 €9.89 €67%
Devil May Cry 5 Deluxe + Vergil Hasta 10:59 01/12/2022 39.98 €19.99 €50%
Devil May Cry 5 Special Edition Hasta 10:59 01/12/2022 39.98 €19.99 €50%
Devil May Cry HD Collection Hasta 10:59 01/12/2022 29.99 €9.89 €67%
Devil May Cry HD Collection & 4SE Bundle Hasta 10:59 01/12/2022 44.99 €22.49 €50%
Diablo II: Resurrected Hasta 10:59 01/12/2022 39.99 €19.99 €50%
Diablo III: Eternal Collection Hasta 10:59 01/12/2022 69.99 €23.09 €67%
Digimon Survive Hasta 10:59 01/12/2022 49.99 €34.99 €30%
Disciples: Liberation Hasta 10:59 01/12/2022 49.99 €27.49 €45%
Dishonored & Prey: The Arkane Collection Hasta 10:59 01/12/2022 89.99 €26.99 €70%
Dishonored 2 Hasta 10:59 01/12/2022 29.99 €5.99 €80%
Dishonored : La muerte del Forastero Deluxe Bundle Hasta 10:59 01/12/2022 69.99 €13.99 €80%
Dishonored Definitive Edition Hasta 10:59 01/12/2022 19.99 €4.99 €75%
Disintegration Hasta 10:59 01/12/2022 29.99 €14.99 €50%
Disney Dreamlight Valley Hasta 10:59 01/12/2022 29.99 €25.49 €15%
Disney Dreamlight Valley - Edición definitiva Hasta 10:59 01/12/2022 69.99 €52.49 €25%
Disneyland Adventures Hasta 10:59 01/12/2022 19.99 €9.99 €50%
DmC Devil May Cry: Definitive Edition Hasta 10:59 01/12/2022 29.99 €8.99 €70%
DMC4SE Demon Hunter Bundle Hasta 10:59 01/12/2022 35.98 €10.79 €70%
DOOM Hasta 10:59 01/12/2022 19.99 €4.99 €75%
DOOM Eternal Deluxe Edition Hasta 10:59 01/12/2022 69.99 €17.49 €75%
DOOM Eternal Standard Edition Hasta 10:59 01/12/2022 39.99 €9.99 €75%
DOOM Slayers Collection Hasta 10:59 01/12/2022 29.99 €7.49 €75%
DOUBLE DRAGON Hasta 10:59 01/12/2022 4.99 €3.49 €30%
Double Dragon 4 Hasta 10:59 01/12/2022 6.89 €3.44 €50%
DOUBLE DRAGON Ⅱ: The Revenge Hasta 10:59 01/12/2022 4.99 €3.49 €30%
DOUBLE DRAGON Ⅲ: The Sacred Stones Hasta 10:59 01/12/2022 4.99 €3.49 €30%
Dragon Age : Inquisition - Edición Juego del año Hasta 10:59 01/12/2022 29.99 €5.99 €80%
DRAGON BALL FIGHTERZ Hasta 10:59 01/12/2022 69.98 €10.49 €85%
DRAGON BALL FIGHTERZ - FighterZ Edition Hasta 10:59 01/12/2022 99.99 €14.99 €85%
DRAGON BALL FIGHTERZ - Ultimate Edition Hasta 10:59 01/12/2022 114.98 €17.24 €85%
DRAGON BALL XENOVERSE Hasta 10:59 01/12/2022 49.99 €9.99 €80%
DRAGON BALL XENOVERSE Super Bundle Hasta 10:59 01/12/2022 89.98 €13.49 €85%
DRAGON BALL Z: KAKAROT Hasta 10:59 01/12/2022 69.99 €17.49 €75%
DRAGON BALL Z: KAKAROT Ultimate Edition Hasta 10:59 01/12/2022 99.99 €49.99 €50%
DRAGON BALL: THE BREAKERS Hasta 10:59 01/12/2022 19.99 €14.99 €25%
Dragon's Dogma: Dark Arisen Hasta 10:59 01/12/2022 24.99 €3.74 €85%
DreadOut 2 Hasta 10:59 29/11/2022 19.99 €13.99 €30%
Duke Nukem 3D: 20th Anniversary World Tour Hasta 10:59 01/12/2022 19.98 €2.99 €85%
Dying Light 2 Stay Human Hasta 10:59 01/12/2022 69.99 €34.99 €50%
Dying Light 2 Stay Human - Ultimate Edition Hasta 10:59 01/12/2022 109.99 €76.99 €30%
Dying Light Edición Definitiva Hasta 10:59 01/12/2022 49.99 €9.99 €80%
Dying Light: The Following - Edición Mejorada Hasta 10:59 01/12/2022 29.99 €8.99 €70%
EA SPORTS FIFA 23 Standard Edition para Xbox One Hasta 10:59 01/12/2022 69.99 €41.99 €40%
EA SPORTS FIFA 23 Standard Edition para Xbox Series X|S Hasta 10:59 01/12/2022 79.99 €47.99 €40%
EA SPORTS FIFA 23 Ultimate Edition para Xbox One y Xbox Series X|S Hasta 00:59 27/11/2022 99.99 €59.99 €40%
Edición definitiva de Minecraft Dungeons Hasta 10:59 01/12/2022 39.99 €25.99 €35%
EDICIÓN DELUXE DE RIDERS REPUBLIC Hasta 10:59 01/12/2022 89.99 €29.69 €67%
Edición deluxe de Ruined King: A League of Legends Story Hasta 10:59 01/12/2022 39.99 €19.99 €50%
Edición Deluxe de Sunset Overdrive Hasta 10:59 01/12/2022 29.99 €14.99 €50%
Edición digital definitiva de Lost Judgment Hasta 10:59 01/12/2022 89.99 €35.99 €60%
Edición Endgame de Marvel's Avengers Hasta 10:59 01/12/2022 69.99 €13.99 €80%
Edición maestra de Monster Hunter World: Iceborne Hasta 10:59 01/12/2022 39.98 €29.98 €25%
Edición Ultimate de STAR WARS Battlefront Hasta 10:59 01/12/2022 19.99 €9.99 €50%
Eiyuden Chronicle: Rising Hasta 10:59 01/12/2022 14.99 €10.04 €33%
El lote BioWare Hasta 10:59 01/12/2022 59.99 €14.99 €75%
ELEX II Hasta 10:59 01/12/2022 59.99 €41.99 €30%
Elite Dangerous Standard Edition Hasta 10:59 01/12/2022 24.99 €6.24 €75%
Embr Hasta 10:59 01/12/2022 19.99 €6.99 €65%
Evil Dead: The Game Hasta 10:59 01/12/2022 39.99 €27.99 €30%
Evil Dead: The Game - Deluxe Edition Hasta 10:59 01/12/2022 59.99 €41.99 €30%
Extinction: Deluxe Edition Hasta 10:59 01/12/2022 39.99 €5.99 €85%
F1 22 Champions Edition Xbox One y Xbox Series X|S Hasta 10:59 01/12/2022 89.99 €44.99 €50%
F1 22 Xbox One Hasta 10:59 01/12/2022 69.99 €34.99 €50%
F1 22 Xbox Series X|S Hasta 10:59 01/12/2022 79.99 €39.99 €50%
Fallout 4 Hasta 10:59 01/12/2022 19.99 €6.59 €67%
Fallout 4: Game of the Year Edition Hasta 10:59 01/12/2022 39.99 €9.99 €75%
Fallout 76: The Pitt Deluxe Edition Hasta 10:59 01/12/2022 69.99 €27.99 €60%
Fantasy Dash Hasta 00:59 28/11/2022 2.99 €0.99 €67%
Far Cry 3 Classic Edition Hasta 10:59 01/12/2022 29.99 €2.99 €90%
FAR CRY 4 GOLD EDITION Hasta 10:59 01/12/2022 49.99 €16.49 €67%
Far Cry 5 Hasta 10:59 01/12/2022 69.99 €13.99 €80%
Far Cry 5 Edición Oro Hasta 10:59 01/12/2022 89.99 €22.49 €75%
FAR CRY 6 Hasta 10:59 01/12/2022 69.99 €23.09 €67%
Far Cry New Dawn Hasta 10:59 01/12/2022 44.99 €11.24 €75%
Far Cry Primal Hasta 10:59 01/12/2022 29.99 €9.89 €67%
FAR: Changing Tides Hasta 10:59 01/12/2022 19.99 €11.99 €40%
Five Nights at Freddy's: Help Wanted Hasta 10:59 29/11/2022 29.99 €14.99 €50%
FOCUS INDIES BUNDLE - Curse of the Dead Gods + Shady Part of Me + Aeon Must Die! Hasta 10:59 01/12/2022 39.99 €15.99 €60%
Food Truck Tycoon Hasta 10:59 29/11/2022 4.99 €3.49 €30%
FOR HONOR : MARCHING FIRE EDITION Hasta 10:59 01/12/2022 49.99 €12.49 €75%
For Honor Complete Edition Hasta 10:59 01/12/2022 99.99 €24.99 €75%
FOR HONOR Standard Edition Hasta 10:59 01/12/2022 29.99 €7.49 €75%
For The King Hasta 10:59 01/12/2022 24.99 €7.49 €70%
Foreclosed Hasta 10:59 29/11/2022 19.99 €7.99 €60%
Forza Horizon 4 Edición Deluxe Hasta 10:59 01/12/2022 89.99 €31.49 €65%
Forza Horizon 4 Edición Excepcional Hasta 10:59 01/12/2022 99.99 €34.99 €65%
Forza Horizon 4: Edición Estándar Hasta 10:59 01/12/2022 64.99 €21.44 €67%
Forza Horizon 5 Edición Deluxe Hasta 10:59 01/12/2022 89.99 €58.49 €35%
Forza Horizon 5 Edición Premium Hasta 10:59 01/12/2022 99.99 €64.99 €35%
Forza Horizon 5: Edición Estándar Hasta 10:59 01/12/2022 69.99 €45.49 €35%
Forza Horizon 5: Paquete de complementos Premium Hasta 10:59 01/12/2022 49.99 €39.99 €20%
Gears 5 Hasta 10:59 01/12/2022 39.99 €13.19 €67%
Gears 5: Edición Juego del año Hasta 10:59 01/12/2022 69.99 €23.09 €67%
Gears of War 4 Hasta 10:59 01/12/2022 19.99 €9.99 €50%
Gears Tactics Hasta 10:59 01/12/2022 39.99 €13.19 €67%
Generation Zero - Base Warfare Starter Bundle Hasta 10:59 01/12/2022 37.99 €25.45 €33%
Geometric Sniper Hasta 10:59 23/11/2022 2.99 €2.39 €20%
Ghostbusters: Spirits Unleashed Hasta 10:59 01/12/2022 39.99 €29.99 €25%
Ghostbusters: The Video Game Remastered Hasta 10:59 01/12/2022 29.99 €7.49 €75%
Ghostrunner Hasta 10:59 01/12/2022 29.99 €10.49 €65%
Ghosts 'n Goblins Resurrection Hasta 10:59 01/12/2022 29.99 €14.99 €50%
Gotham Knights Hasta 10:59 01/12/2022 74.99 €44.99 €40%
Grand Theft Auto V Hasta 10:59 01/12/2022 39.99 €19.99 €50%
Grand Theft Auto: The Trilogy - The Definitive Edition Hasta 10:59 01/12/2022 59.99 €29.99 €50%
GreedFall Hasta 10:59 01/12/2022 34.99 €10.49 €70%
Green Hell Hasta 10:59 01/12/2022 24.99 €17.49 €30%
GRID Legends Hasta 10:59 01/12/2022 69.99 €13.99 €80%
GRID Legends: Deluxe Edition Hasta 10:59 01/12/2022 89.99 €17.99 €80%
Grounded Hasta 10:59 01/12/2022 39.99 €29.99 €25%
Guardianes de la Noche -Kimetsu No Yaiba- Las Crónicas de Hinokami Hasta 10:59 01/12/2022 59.99 €29.99 €50%
Hades Hasta 10:59 29/11/2022 24.99 €16.74 €33%
Halo 5: Guardians Hasta 10:59 01/12/2022 19.98 €4.99 €75%
Halo REACH Hasta 10:59 01/12/2022 9.99 €3.99 €60%
Halo Wars 2: edición completa Hasta 10:59 01/12/2022 64.99 €16.24 €75%
Halo Wars 2: Standard Edition Hasta 10:59 01/12/2022 39.98 €9.99 €75%
Halo Wars: Definitive Edition Hasta 10:59 01/12/2022 19.98 €4.99 €75%
Halo: Infinite (campaña) Hasta 10:59 01/12/2022 69.99 €34.99 €50%
Halo: la colección Jefe Maestro Hasta 10:59 01/12/2022 39.99 €15.99 €60%
Hellblade: Senua's Sacrifice Hasta 10:59 01/12/2022 29.99 €7.49 €75%
HITMAN 3 - Standard Edition Hasta 10:59 01/12/2022 69.99 €24.49 €65%
HITMAN Trilogy Hasta 10:59 01/12/2022 99.99 €34.99 €65%
Homefront : The Revolution Hasta 10:59 01/12/2022 19.99 €1.99 €90%
Hotshot Racing Hasta 10:59 01/12/2022 19.99 €3.99 €80%
Hunt Ducks II Hasta 00:59 25/11/2022 3.99 €0.99 €75%
Hunt: Showdown Hasta 10:59 01/12/2022 39.99 €7.99 €80%
Hunt: Showdown - Starter Hunter Edition Hasta 10:59 01/12/2022 59.99 €11.99 €80%
Hunting Simulator 2 Xbox One Hasta 10:59 01/12/2022 59.99 €17.99 €70%
Hunting Simulator 2 Xbox Series X|S Hasta 10:59 01/12/2022 59.99 €17.99 €70%
Hunting Simulator 2: Elite Edition Xbox One Hasta 10:59 01/12/2022 79.99 €23.99 €70%
Hunting Simulator 2: Elite Edition Xbox Series X|S Hasta 10:59 01/12/2022 79.99 €23.99 €70%
I Am Dead Hasta 10:59 29/11/2022 19.99 €9.99 €50%
I Am Fish Hasta 10:59 01/12/2022 19.99 €7.99 €60%
Immortals Fenyx Rising Hasta 10:59 01/12/2022 69.99 €17.49 €75%
IMMORTALS FENYX RISING - GOLD EDITION Hasta 10:59 01/12/2022 99.99 €29.99 €70%
In Sound Mind Hasta 10:59 01/12/2022 34.99 €5.24 €85%
Injustice 2 Hasta 10:59 01/12/2022 39.99 €11.99 €70%
It Takes Two - Versión digital Hasta 10:59 01/12/2022 39.99 €15.99 €60%
JoJo's Bizarre Adventure: All-Star Battle R Hasta 10:59 01/12/2022 49.99 €34.99 €30%
Journey to the Savage Planet Hasta 10:59 01/12/2022 29.99 €8.99 €70%
Judgment Hasta 10:59 01/12/2022 39.99 €15.99 €60%
Jurassic World Evolution Hasta 10:59 01/12/2022 49.99 €12.49 €75%
Jurassic World Evolution: colección de dinosaurios Hasta 10:59 01/12/2022 12.49 €6.24 €50%
Jurassic World Evolution: colección de expansiones Hasta 10:59 01/12/2022 39.99 €15.99 €60%
Jurassic World Evolution: paquete Deluxe Hasta 10:59 01/12/2022 54.99 €13.74 €75%
Just Cause 3: XXL Edition Hasta 10:59 01/12/2022 29.99 €4.49 €85%
Just Cause 4 - Complete Edition Hasta 10:59 01/12/2022 69.99 €13.99 €80%
Just Cause 4: Reloaded Hasta 10:59 01/12/2022 39.99 €7.99 €80%
KAMIKO Hasta 10:59 29/11/2022 4.29 €3 €30%
Katamari Damacy REROLL Hasta 10:59 01/12/2022 29.99 €7.49 €75%
Kerbal Space Program Enhanced Edition Hasta 10:59 01/12/2022 39.99 €9.99 €75%
Killer Instinct: Definitive Edition Hasta 10:59 01/12/2022 39.99 €19.99 €50%
Kingdom Come: Deliverance Hasta 10:59 01/12/2022 29.99 €7.49 €75%
Kingdoms of Amalur: Re-Reckoning Hasta 10:59 01/12/2022 39.99 €17.99 €55%
Klonoa Phantasy Reverie Series Hasta 10:59 01/12/2022 49.99 €29.99 €40%
Knights of Pen and Paper Bundle Hasta 00:59 31/12/2028 27.99 €22.39 €20%
L.A. Noire Hasta 10:59 01/12/2022 39.99 €19.99 €50%
La LEGO NINJAGO Película El videojuego Hasta 10:59 01/12/2022 59.99 €11.99 €80%
La LEGO Película Hasta 10:59 01/12/2022 34.99 €6.99 €80%
La Patrulla Canina: La película La llamada de Ciudad Aventura Hasta 10:59 01/12/2022 39.99 €19.99 €50%
La Tierra Media : Sombras de Guerra Hasta 10:59 01/12/2022 39.99 €11.99 €70%
Lara Croft and the Temple of Osiris con pase de temporada Hasta 10:59 01/12/2022 28.98 €4.34 €85%
LEGO Batman 3: MÁS ALLÁ DE GOTHAM Hasta 10:59 01/12/2022 49.99 €9.99 €80%
LEGO Brawls Hasta 10:59 01/12/2022 39.99 €27.99 €30%
LEGO Builder's Journey Hasta 10:59 01/12/2022 19.99 €9.99 €50%
LEGO CITY Undercover Hasta 10:59 01/12/2022 59.99 €11.99 €80%
LEGO DC Súper-Villanos Hasta 10:59 01/12/2022 59.99 €11.99 €80%
LEGO El Hobbit Hasta 10:59 01/12/2022 39.99 €9.99 €75%
LEGO Marvel Super Heroes 2 Hasta 10:59 01/12/2022 59.99 €11.99 €80%
LEGO Marvel's Vengadores Hasta 10:59 01/12/2022 49.99 €9.99 €80%
LEGO Star Wars : La Saga De Skywalker Hasta 10:59 01/12/2022 59.99 €29.99 €50%
LEGO Worlds Hasta 10:59 01/12/2022 29.99 €8.99 €70%
Lemnis Gate Hasta 10:59 01/12/2022 16.99 €6.79 €60%
Let's Sing 2022 incluye Canciones Españolas Hasta 10:59 01/12/2022 39.99 €19.99 €50%
Let's Sing ABBA Hasta 10:59 01/12/2022 39.99 €31.99 €20%
Life is Strange 2 - Temporada completa Hasta 10:59 01/12/2022 31.96 €12.78 €60%
Life is Strange Remastered Collection Hasta 10:59 01/12/2022 39.99 €25.99 €35%
Life is Strange: True Colors Hasta 10:59 01/12/2022 59.99 €29.99 €50%
Life is Strange: True Colors - Deluxe Edition Hasta 10:59 01/12/2022 69.99 €34.99 €50%
Life is Strange: True Colors - Ultimate Edition Hasta 10:59 01/12/2022 79.99 €51.99 €35%
Little Nightmares Hasta 10:59 01/12/2022 19.98 €4.99 €75%
Little Nightmares II Hasta 10:59 01/12/2022 29.99 €9.89 €67%
Livelock Hasta 10:59 01/12/2022 9.99 €2.99 €70%
Lords of the Fallen Complete Edition (2014) Hasta 10:59 01/12/2022 29.99 €5.99 €80%
Lost in Random Hasta 10:59 01/12/2022 29.99 €5.99 €80%
Lost Judgment Hasta 10:59 01/12/2022 59.99 €23.99 €60%
Lost Words: Beyond the Page Hasta 10:59 01/12/2022 14.99 €2.99 €80%
Lote Deluxe Marvel's Guardians of the Galaxy + Marvel's Avengers Hasta 10:59 01/12/2022 119.99 €35.99 €70%
Lote Far Cry 5 + Far Cry New Dawn Deluxe Edition Hasta 10:59 01/12/2022 99.99 €24.99 €75%
Lote Far Cry 5 Gold Edition + Far Cry New Dawn Deluxe Edition Hasta 10:59 01/12/2022 119.99 €29.99 €75%
Lote Hazelight Hasta 10:59 01/12/2022 59.99 €19.79 €67%
LOTE TRIPLE DE EA STAR WARS Hasta 10:59 01/12/2022 89.99 €22.49 €75%
Lote: South Park : La Vara de la Verdad + Retaguardia en Peligro Hasta 10:59 01/12/2022 69.99 €23.09 €67%
Mad Max Hasta 10:59 01/12/2022 69.99 €6.99 €90%
Madden NFL 23 Edición All Madden para Xbox One y Xbox Series X|S Hasta 10:59 01/12/2022 99.99 €49.99 €50%
Madden NFL 23 para Xbox One Hasta 10:59 01/12/2022 69.99 €34.99 €50%
Madden NFL 23 para Xbox Series X|S Hasta 10:59 01/12/2022 79.99 €39.99 €50%
MADiSON Hasta 10:59 01/12/2022 35.99 €28.79 €20%
Mafia: Edición Definitiva Hasta 10:59 01/12/2022 39.99 €13.99 €65%
Maid of Sker Hasta 10:59 29/11/2022 24.99 €11.24 €55%
Maneater Apex Edition Hasta 10:59 01/12/2022 49.99 €29.99 €40%
MARVEL VS. CAPCOM: INFINITE Hasta 10:59 01/12/2022 39.99 €7.99 €80%
Marvel vs. Capcom: Infinite - Deluxe Edition Hasta 10:59 01/12/2022 59.99 €11.99 €80%
Marvel's Avengers Hasta 10:59 01/12/2022 49.99 €9.99 €80%
Marvel's Guardians of the Galaxy Hasta 10:59 01/12/2022 69.99 €24.49 €65%
Marvel's Guardians of the Galaxy + Marvel's Avengers Hasta 10:59 01/12/2022 99.99 €29.99 €70%
Marvel's Guardians of the Galaxy - Edición Digital Deluxe Hasta 10:59 01/12/2022 79.99 €27.99 €65%
Mass Effect Legendary Edition Hasta 10:59 01/12/2022 69.99 €20.99 €70%
MASSIVE CHALICE Hasta 10:59 01/12/2022 19.99 €4.99 €75%
Matchpoint - Tennis Championships Hasta 10:59 01/12/2022 49.99 €37.49 €25%
Maze Blaze Hasta 10:59 29/11/2022 9.99 €6.99 €30%
Mechapunk Hasta 10:59 24/11/2022 4.99 €3.99 €20%
MechWarrior 5: Mercenaries Hasta 10:59 01/12/2022 29.99 €14.99 €50%
Mega Man 11 Hasta 10:59 01/12/2022 29.99 €9.89 €67%
Mega Man 30th Anniversary Bundle Hasta 10:59 01/12/2022 59.98 €29.99 €50%
Mega Man Legacy Collection 1 & 2 Combo Pack Hasta 10:59 01/12/2022 24.99 €12.49 €50%
Mega Man X Legacy Collection 1+2 Hasta 10:59 01/12/2022 38.99 €15.59 €60%
MEGALAN 11 (Xbox Series X|S) Hasta 00:59 30/11/2022 9.99 €7.99 €20%
METAL GEAR SOLID V: THE PHANTOM PAIN Hasta 10:59 01/12/2022 54.98 €13.74 €75%
Metal: Hellsinger Hasta 10:59 01/12/2022 39.99 €29.99 €25%
Metro Exodus Hasta 10:59 01/12/2022 29.99 €7.49 €75%
Metro: Last Light Redux Hasta 10:59 01/12/2022 19.99 €2.99 €85%
Mi Amiga, Peppa Pig - Edición completa Hasta 10:59 01/12/2022 44.99 €17.99 €60%
Minemaze Hasta 00:59 26/11/2022 3.99 €0.99 €75%
Minigolf Adventure Hasta 10:59 29/11/2022 4.99 €1.24 €75%
Mirror's Edge Catalyst Hasta 10:59 01/12/2022 19.99 €4.99 €75%
Monochrome Order Hasta 10:59 29/11/2022 14.99 €7.49 €50%
MONOPOLY DEAL Hasta 10:59 01/12/2022 4.99 €1.49 €70%
MONOPOLY PLUS + MONOPOLY Madness Hasta 10:59 01/12/2022 49.99 €17.49 €65%
Monster Blocks: Get 9 Puzzle Hasta 00:59 08/12/2022 1.99 €0.99 €50%
Monster Energy Supercross - The Official Videogame 4 Hasta 10:59 01/12/2022 49.99 €7.49 €85%
Monster Energy Supercross 4 - Special Edition Hasta 10:59 01/12/2022 69.99 €10.49 €85%
Monster Energy Supercross 4 - Special Edition - Xbox Series X|S Hasta 10:59 01/12/2022 69.99 €10.49 €85%
Monster Energy Supercross 4 - Xbox Series X|S Hasta 10:59 01/12/2022 49.99 €7.49 €85%
Monster Harvest Hasta 10:59 29/11/2022 19.99 €7.99 €60%
MONSTER HUNTER: WORLD Hasta 10:59 01/12/2022 19.98 €14.98 €25%
Monster Jam Steel Titans Power Out Bundle Hasta 10:59 01/12/2022 59.99 €20.99 €65%
Mortal Kombat 11 Hasta 10:59 01/12/2022 49.99 €14.99 €70%
Mortal Kombat X Hasta 10:59 01/12/2022 29.99 €9.89 €67%
MotoGP 21 Hasta 10:59 01/12/2022 49.99 €7.49 €85%
MotoGP 21 - Xbox Series X|S Hasta 10:59 01/12/2022 49.99 €7.49 €85%
Mr. DRILLER DrillLand Hasta 10:59 01/12/2022 19.99 €5.99 €70%
Murder Diaries Hasta 10:59 29/11/2022 9.99 €6.49 €35%
Murdered: Soul Suspect Hasta 10:59 01/12/2022 19.98 €2.99 €85%
MX vs ATV Legends Hasta 10:59 01/12/2022 39.99 €29.99 €25%
MY HERO ONE’S JUSTICE Hasta 10:59 01/12/2022 69.98 €6.99 €90%
NARUTO SHIPPUDEN: Ultimate Ninja STORM 4 Hasta 10:59 01/12/2022 29.99 €7.49 €75%
NARUTO SHIPPUDEN: Ultimate Ninja STORM 4 Road to Boruto Hasta 10:59 01/12/2022 49.99 €9.99 €80%
NARUTO SHIPPUDEN: Ultimate Ninja STORM Legacy Hasta 10:59 01/12/2022 69.98 €13.99 €80%
NARUTO TO BORUTO: SHINOBI STRIKER Hasta 10:59 01/12/2022 69.98 €6.99 €90%
NASCAR Heat 5 Hasta 10:59 01/12/2022 19.99 €13.99 €30%
NASCAR Heat 5 - Ultimate Edition Hasta 10:59 01/12/2022 29.99 €17.99 €40%
NBA 2K Playgrounds 2 Hasta 10:59 01/12/2022 29.99 €7.49 €75%
NBA 2K23 Edición Michael Jordan Hasta 10:59 01/12/2022 99.99 €49.99 €50%
NBA 2K23 para Xbox One Hasta 10:59 01/12/2022 69.99 €31.49 €55%
NBA 2K23 para Xbox Series X|S Hasta 10:59 01/12/2022 79.99 €39.99 €50%
Necromunda: Hired Gun Hasta 10:59 01/12/2022 39.99 €15.99 €60%
NERF Legends Hasta 10:59 01/12/2022 49.99 €9.99 €80%
Nerf Legends Digital Deluxe Hasta 10:59 01/12/2022 59.99 €11.99 €80%
New Tales from the Borderlands Hasta 10:59 01/12/2022 39.99 €29.99 €25%
NHL 23 en Xbox One Hasta 10:59 01/12/2022 69.99 €41.99 €40%
NHL 23 en Xbox Series X|S Hasta 10:59 01/12/2022 79.99 €47.99 €40%
Nickelodeon Kart Racers 2: Grand Prix Hasta 10:59 01/12/2022 39.99 €9.99 €75%
Nickelodeon: Kart Racers Hasta 10:59 01/12/2022 39.99 €5.99 €85%
Ninjin: Clash of Carrots Hasta 10:59 01/12/2022 9.99 €1.99 €80%
No Longer Home Xbox Edition Hasta 10:59 29/11/2022 14.99 €5.99 €60%
Octahedron Hasta 10:59 01/12/2022 12.98 €5.19 €60%
Oh My Godheads Hasta 10:59 01/12/2022 14.98 €2.99 €80%
OlliOlli World Hasta 10:59 01/12/2022 29.99 €17.99 €40%
OlliOlli World Rad Edition Hasta 10:59 01/12/2022 44.99 €29.24 €35%
One Hand Clapping Hasta 10:59 01/12/2022 14.99 €10.04 €33%
ONE PIECE BURNING BLOOD Hasta 10:59 01/12/2022 69.98 €6.99 €90%
ONE PIECE World Seeker Hasta 10:59 01/12/2022 69.98 €6.99 €90%
ONE PIECE: PIRATE WARRIORS 4 Deluxe Edition Hasta 10:59 01/12/2022 94.99 €18.99 €80%
ONE PUNCH MAN: A HERO NOBODY KNOWS Deluxe Edition Hasta 10:59 01/12/2022 84.99 €12.74 €85%
Ori and the Will of the Wisps Hasta 10:59 01/12/2022 29.99 €9.89 €67%
Ori: The Collection Hasta 10:59 01/12/2022 34.99 €11.54 €67%
Othercide Hasta 10:59 01/12/2022 29.99 €8.99 €70%
Outbreak: The New Nightmare Definitive Edition Hasta 10:59 29/11/2022 14.99 €2.99 €80%
Outer Wilds Hasta 10:59 01/12/2022 24.99 €14.99 €40%
OUTRIDERS Hasta 10:59 01/12/2022 49.99 €22.49 €55%
OUTRIDERS: WORLDSLAYER Hasta 10:59 01/12/2022 69.99 €45.49 €35%
Outward: The Adventurer Bundle Hasta 10:59 01/12/2022 39.99 €15.99 €60%
Overcooked! 2 - Gourmet Edition Hasta 10:59 01/12/2022 42.49 €10.62 €75%
PAC-MAN MUSEUM+ Hasta 10:59 01/12/2022 19.99 €11.99 €40%
PAC-MAN WORLD Re-PAC Hasta 10:59 01/12/2022 39.99 €25.99 €35%
Pack triple Assassin's Creed: Black Flag, Unity, Syndicate Hasta 10:59 01/12/2022 79.99 €19.99 €75%
Pack triple de Resident Evil Hasta 10:59 01/12/2022 49.99 €16.49 €67%
Panzer Dragoon: Remake Hasta 10:59 29/11/2022 24.99 €2.49 €90%
Paquete Bajo Fiestero de Realm Royale Hasta 10:59 01/12/2022 14.99 €3.74 €75%
Paquete Ballena celeste de Paladins Hasta 10:59 01/12/2022 14.99 €11.24 €25%
Paquete de juego: Barn Finders y Treasure Hunter Simulator Hasta 10:59 29/11/2022 23.99 €17.99 €25%
Paquete de prototipo de CrossfireX Hasta 10:59 01/12/2022 9.99 €8.49 €15%
Paquete esencial de Sherlock Holmes Hasta 10:59 01/12/2022 99.99 €39.99 €60%
Paquete familiar de EA Hasta 10:59 01/12/2022 39.99 €3.99 €90%
PAQUETE FAR CRY 4 + FAR CRY PRIMAL Hasta 10:59 01/12/2022 49.99 €19.99 €60%
PAQUETE FAR CRY ANTHOLOGY Hasta 10:59 01/12/2022 179.99 €53.99 €70%
Paquete Gecko guardián de SMITE Hasta 10:59 01/12/2022 17.99 €10.79 €40%
Paquete Mensajera curiosa de SMITE Hasta 10:59 01/12/2022 17.99 €10.79 €40%
Paquete triple de Gears Hasta 10:59 01/12/2022 79.99 €23.99 €70%
Paquete Unravel Yarny Hasta 10:59 01/12/2022 29.99 €5.99 €80%
Paradise Killer Hasta 10:59 29/11/2022 19.99 €11.99 €40%
Paw Patrol Lote Hasta 10:59 01/12/2022 59.99 €29.99 €50%
PAYDAY 2: CRIMEWAVE EDITION Hasta 10:59 01/12/2022 19.99 €3.99 €80%
Persona 5 Royal Hasta 10:59 01/12/2022 59.99 €44.99 €25%
PGA TOUR 2K23 Hasta 10:59 01/12/2022 69.99 €45.49 €35%
Phoenix Point: Behemoth Edition Hasta 10:59 29/11/2022 39.99 €23.99 €40%
Phoenix Wright: Ace Attorney Trilogy Hasta 10:59 01/12/2022 29.99 €14.99 €50%
PJ MASKS: HÉROES DE LA NOCHE - EDICIÓN COMPLETA Hasta 10:59 01/12/2022 44.99 €17.99 €60%
Planet Coaster: Edición Deluxe Hasta 10:59 01/12/2022 54.99 €19.24 €65%
Plants vs. Zombies : La Batalla de Neighborville Hasta 10:59 01/12/2022 29.99 €5.99 €80%
Plants vs. Zombies Garden Warfare Hasta 10:59 01/12/2022 19.99 €4.99 €75%
Plants vs. Zombies Garden Warfare 2 Hasta 10:59 01/12/2022 39.99 €9.99 €75%
Plants vs. Zombies La Batalla de Neighborville edición deluxe Hasta 10:59 01/12/2022 39.99 €9.99 €75%
Pool Nation Snooker Bundle Hasta 10:59 29/11/2022 10.49 €4.19 €60%
Port Royale 4 Hasta 10:59 01/12/2022 49.99 €24.99 €50%
Portal Knights Hasta 10:59 01/12/2022 19.99 €7.99 €60%
Prey Hasta 10:59 01/12/2022 29.99 €7.49 €75%
Prey : Digital Deluxe Edition Hasta 10:59 01/12/2022 39.99 €9.99 €75%
Prime Evil Collection de Diablo Hasta 10:59 01/12/2022 59.99 €29.99 €50%
Prison Architect: Total Lockdown Bundle Hasta 10:59 01/12/2022 59.99 €14.99 €75%
Project Highrise: Architect's Edition Hasta 10:59 01/12/2022 29.99 €5.99 €80%
Psychonauts 2 Hasta 10:59 01/12/2022 59.99 €19.79 €67%
Quantum Break Hasta 10:59 01/12/2022 39.98 €19.99 €50%
RABBIDS INVASION - GOLD EDITION Hasta 10:59 01/12/2022 29.99 €7.49 €75%
Rabbids Invasion : La serie de Televisión Interactiva Hasta 10:59 01/12/2022 19.99 €4.99 €75%
Rabbids: Party of Legends Hasta 10:59 01/12/2022 39.99 €19.99 €50%
RACCOON CITY EDITION Hasta 10:59 01/12/2022 59.99 €14.99 €75%
RAD Hasta 10:59 01/12/2022 19.98 €4.99 €75%
RAGE 2: Deluxe Edition Hasta 10:59 01/12/2022 69.99 €13.99 €80%
Railway Empire Hasta 10:59 01/12/2022 19.99 €9.99 €50%
Rainbow Billy: The Curse of the Leviathan Hasta 10:59 01/12/2022 17.99 €8.99 €50%
Rare Replay Hasta 10:59 01/12/2022 29.99 €7.49 €75%
ReCore Hasta 10:59 01/12/2022 19.99 €9.99 €50%
Red Ball Escape Adventure Hasta 00:59 07/12/2022 3.99 €0.99 €75%
Red Dead Online Hasta 10:59 01/12/2022 19.99 €9.99 €50%
Red Faction Guerrilla Re-Mars-tered Hasta 10:59 01/12/2022 29.99 €5.99 €80%
Relicta Hasta 10:59 01/12/2022 19.99 €3.99 €80%
Renegade Hasta 10:59 01/12/2022 4.99 €3.49 €30%
Resident Evil Hasta 10:59 01/12/2022 19.98 €4.99 €75%
Resident Evil 0 Hasta 10:59 01/12/2022 19.98 €4.99 €75%
RESIDENT EVIL 2 Hasta 10:59 01/12/2022 39.98 €9.99 €75%
RESIDENT EVIL 2 Deluxe Edition Hasta 10:59 01/12/2022 49.99 €12.49 €75%
RESIDENT EVIL 3 Hasta 10:59 01/12/2022 39.99 €9.99 €75%
resident evil 4 Hasta 10:59 01/12/2022 19.98 €7.99 €60%
Resident Evil 5 Hasta 10:59 01/12/2022 19.98 €7.99 €60%
Resident Evil 6 Hasta 10:59 01/12/2022 19.98 €7.99 €60%
RESIDENT EVIL 7 biohazard Hasta 10:59 01/12/2022 19.98 €7.99 €60%
RESIDENT EVIL 7 biohazard Gold Edition Hasta 10:59 01/12/2022 39.98 €15.99 €60%
Resident Evil Revelations Hasta 10:59 01/12/2022 19.98 €7.99 €60%
Resident Evil Revelations 1 & 2 Bundle Hasta 10:59 01/12/2022 39.98 €15.99 €60%
Resident Evil Revelations 2 Deluxe Edition Hasta 10:59 01/12/2022 29.99 €11.99 €60%
Resident Evil Village Hasta 10:59 01/12/2022 39.99 €29.99 €25%
Resident Evil: Deluxe Origins Bundle Hasta 10:59 01/12/2022 39.98 €9.99 €75%
RIDE 3 Hasta 10:59 01/12/2022 49.99 €7.49 €85%
RIDE 3 - Gold Edition Hasta 10:59 01/12/2022 79.99 €11.99 €85%
Riders Republic Hasta 10:59 01/12/2022 69.99 €23.09 €67%
Riders Republic Ultimate Edition Hasta 10:59 01/12/2022 119.99 €39.59 €67%
RiMS Racing Xbox One Hasta 10:59 01/12/2022 49.99 €14.99 €70%
RiMS Racing Xbox Series X|S Hasta 10:59 01/12/2022 49.99 €14.99 €70%
Rise of the Tomb Raider: Edición 20 aniversario Hasta 10:59 01/12/2022 29.99 €5.99 €80%
River City Ransom Hasta 10:59 01/12/2022 4.99 €3.49 €30%
Road 96 Hasta 10:59 01/12/2022 19.99 €9.99 €50%
Rogue Lords Hasta 10:59 01/12/2022 29.99 €17.99 €40%
Rogue Stormers Hasta 10:59 01/12/2022 19.98 €1.99 €90%
Rogue Stormers & Giana Sisters Bundle Hasta 10:59 01/12/2022 24.99 €2.49 €90%
Roguebook Xbox One Hasta 10:59 01/12/2022 24.99 €14.99 €40%
Roguebook Xbox Series X|S Hasta 10:59 01/12/2022 29.99 €17.99 €40%
Romancing SaGa 2 Hasta 10:59 01/12/2022 24.99 €7.49 €70%
Romancing SaGa 3 Hasta 10:59 01/12/2022 31.99 €9.59 €70%
Rugby 22 Xbox One Hasta 10:59 01/12/2022 49.99 €24.99 €50%
Rugby 22 Xbox Series X|S Hasta 10:59 01/12/2022 49.99 €24.99 €50%
RUSH: A Disney • PIXAR Adventure Hasta 10:59 01/12/2022 19.99 €9.99 €50%
RWBY: Arrowfell Hasta 10:59 06/12/2022 29.99 €26.99 €10%
Saints Row Platinum Edition Hasta 10:59 01/12/2022 109.99 €73.69 €33%
Save Room Hasta 10:59 26/11/2022 4.99 €3.99 €20%
SCARLET NEXUS Hasta 10:59 01/12/2022 69.99 €17.49 €75%
SCARLET NEXUS Deluxe Edition Hasta 10:59 01/12/2022 79.99 €19.99 €75%
SCARLET NEXUS Ultimate Edition Hasta 10:59 01/12/2022 99.99 €24.99 €75%
Scribblenauts Showdown Hasta 10:59 01/12/2022 39.99 €5.99 €85%
SD GUNDAM BATTLE ALLIANCE Hasta 10:59 01/12/2022 59.99 €41.99 €30%
SD GUNDAM BATTLE ALLIANCE Deluxe Edition Hasta 10:59 01/12/2022 84.99 €59.49 €30%
Sea of Thieves Hasta 10:59 01/12/2022 39.99 €19.99 €50%
Sekiro : Shadows Die Twice - Edición Juego del Año Hasta 10:59 01/12/2022 69.99 €34.99 €50%
Shadoworld: The Impossible Escape Game Hasta 00:59 10/12/2022 3.99 €0.99 €75%
Shadows: Awakening Hasta 10:59 01/12/2022 29.99 €9.89 €67%
Sherlock Holmes Chapter One Hasta 10:59 01/12/2022 44.99 €22.49 €50%
Sid Meier's Civilization VI Hasta 10:59 01/12/2022 29.99 €8.99 €70%
Skyrim Anniversary Edition + Fallout 4 G.O.T.Y Bundle Hasta 10:59 01/12/2022 88.99 €35.59 €60%
Sleeping Dogs Definitive Edition Hasta 10:59 01/12/2022 29.99 €4.49 €85%
Slime's Journey Hasta 10:59 03/12/2022 4.99 €3.99 €20%
Sniper Elite 5 Hasta 10:59 01/12/2022 59.99 €41.99 €30%
Sniper Ghost Warrior Contracts & SGW3 Unlimited Edition Hasta 10:59 01/12/2022 59.99 €17.99 €70%
Sniper Ghost Warrior Contracts 2 Deluxe Arsenal Edition Hasta 10:59 01/12/2022 49.99 €22.49 €55%
Sniper Ghost Warrior Contracts Full Arsenal Edition Hasta 10:59 01/12/2022 49.99 €14.99 €70%
SnowRunner - Premium Edition Hasta 10:59 01/12/2022 59.99 €29.99 €50%
Sonic Colours: Ultimate - Digital Deluxe Hasta 10:59 01/12/2022 44.99 €22.49 €50%
Sonic Mania Hasta 10:59 01/12/2022 19.98 €7.99 €60%
Sonic Origins Digital Deluxe Hasta 10:59 01/12/2022 44.99 €22.49 €50%
Soul Hackers 2 Hasta 10:59 01/12/2022 59.99 €41.99 €30%
Soul Hackers 2: Edición Premium digital Hasta 10:59 01/12/2022 89.99 €62.99 €30%
SOULCALIBUR VI Hasta 10:59 01/12/2022 69.98 €10.49 €85%
Soulstice Hasta 10:59 01/12/2022 39.99 €27.99 €30%
South of the Circle Hasta 10:59 29/11/2022 12.99 €9.09 €30%
South Park : Los Venganales de la Justicia Hasta 10:59 01/12/2022 59.99 €14.99 €75%
Space Crew: Legendary Edition Hasta 10:59 01/12/2022 24.99 €4.99 €80%
Space Warlord Organ Trading Simulator Hasta 10:59 29/11/2022 19.99 €13.39 €33%
SpellForce III Reforced Hasta 10:59 01/12/2022 39.99 €25.99 €35%
SpongeBob SquarePants: Battle for Bikini Bottom - Rehydrated Hasta 10:59 01/12/2022 29.99 €13.49 €55%
STAR WARS : Squadrons Hasta 10:59 01/12/2022 39.99 €7.99 €80%
STAR WARS Battlefront II Hasta 10:59 01/12/2022 19.99 €3.99 €80%
STAR WARS Battlefront II Celebration Edition Hasta 10:59 01/12/2022 39.99 €9.99 €75%
STAR WARS Jedi: Fallen Order Hasta 10:59 01/12/2022 49.99 €7.49 €85%
State of Decay 2: Juggernaut Edition Hasta 10:59 01/12/2022 29.99 €14.99 €50%
Steelrising - Standard Edition Hasta 10:59 01/12/2022 59.99 €38.99 €35%
Stellaris: Console Edition - Deluxe Edition Hasta 10:59 01/12/2022 59.99 €14.99 €75%
Street Fighter 30th Anniversary Collection Hasta 10:59 01/12/2022 29.99 €11.99 €60%
Street Outlaws: The List Hasta 10:59 01/12/2022 39.99 €5.99 €85%
Struggling Hasta 10:59 01/12/2022 12.99 €5.19 €60%
Sudden Strike 4 - European Battlefields Edition Hasta 10:59 01/12/2022 29.99 €14.99 €50%
Sunset Overdrive Hasta 10:59 01/12/2022 19.98 €9.99 €50%
Super Chicken Jumper Hasta 10:59 01/12/2022 4.99 €3.99 €20%
Super Dodge Ball Hasta 10:59 01/12/2022 4.99 €3.49 €30%
Super Ninja Miner Hasta 10:59 24/11/2022 4.99 €4.49 €10%
Super Rebellion Hasta 00:59 23/11/2022 5.99 €4.79 €20%
Super Woden GP Hasta 10:59 24/11/2022 11.99 €9.59 €20%
Surviving the Aftermath Hasta 10:59 01/12/2022 29.99 €19.49 €35%
SWORD ART ONLINE Alicization Lycoris Deluxe Edition Hasta 10:59 01/12/2022 109.99 €43.99 €60%
SWORD ART ONLINE: FATAL BULLET Hasta 10:59 01/12/2022 39.98 €7.99 €80%
Tales of Arise Cross-Gen Bundle Hasta 10:59 01/12/2022 69.99 €27.99 €60%
Tales Of Arise Deluxe Edition Hasta 10:59 01/12/2022 89.99 €35.99 €60%
Tales Of Arise Ultimate Edition Hasta 10:59 01/12/2022 99.99 €39.99 €60%
Tanks Bundle Hasta 00:59 27/11/2022 14.99 €10.49 €30%
Teenage Mutant Ninja Turtles: The Cowabunga Collection Hasta 10:59 01/12/2022 39.99 €27.99 €30%
TEKKEN 7 - Originals Edition Hasta 10:59 01/12/2022 99.99 €14.99 €85%
Tell Me Why: Capítulo 1-3 Hasta 10:59 01/12/2022 19.99 €9.99 €50%
Temple Dash: Jungle Adventure Hasta 00:59 24/11/2022 4.99 €0.99 €80%
Tennis World Tour 2 - Complete Edition Xbox Series X|S Hasta 10:59 01/12/2022 59.99 €17.99 €70%
Tennis World Tour 2 Ace Edition Hasta 10:59 01/12/2022 69.99 €17.49 €75%
Terraria Hasta 10:59 01/12/2022 18.99 €9.49 €50%
The Awakening of Mummies Hasta 10:59 30/11/2022 2.99 €2.39 €20%
The Bard's Tale ARPG: Remastered and Resnarkled Hasta 10:59 01/12/2022 16.99 €3.39 €80%
The Bard's Tale IV: Director's Cut Hasta 10:59 01/12/2022 39.99 €9.99 €75%
The Bard's Tale Trilogy Hasta 10:59 01/12/2022 12.49 €3.12 €75%
The Big Con Hasta 10:59 01/12/2022 12.49 €4.99 €60%
The Bounty Huntress Hasta 10:59 30/11/2022 4.99 €3.99 €20%
The Crew 2 Hasta 10:59 01/12/2022 49.99 €9.99 €80%
The Crew 2 Gold Edition Hasta 10:59 01/12/2022 89.99 €17.99 €80%
The DioField Chronicle Hasta 10:59 01/12/2022 59.99 €40.19 €33%
The DioField Chronicle Digitale Deluxe Edition Hasta 10:59 01/12/2022 74.99 €50.24 €33%
The Elder Scrolls Online Hasta 10:59 01/12/2022 19.99 €5.99 €70%
The Elder Scrolls Online Collection: High Isle Hasta 10:59 01/12/2022 69.99 €23.09 €67%
The Elder Scrolls Online Collection: High Isle Collector's Edition Hasta 10:59 01/12/2022 89.99 €29.69 €67%
The Elder Scrolls V: Skyrim Anniversary Edition Hasta 10:59 01/12/2022 54.99 €21.99 €60%
The Escapists 2 - Game of the Year Edition Hasta 10:59 01/12/2022 26.99 €6.74 €75%
The Evil Within Hasta 10:59 01/12/2022 19.99 €4.99 €75%
The Evil Within 2 Hasta 10:59 01/12/2022 39.99 €7.99 €80%
The Evil Within Digital Bundle Hasta 10:59 01/12/2022 29.99 €5.99 €80%
The Hand Of Merlin Hasta 10:59 01/12/2022 29.99 €14.99 €50%
The Jackbox Party Pack 6 Hasta 10:59 01/12/2022 29.99 €17.99 €40%
The Jackbox Party Pack 7 Hasta 10:59 01/12/2022 29.99 €17.99 €40%
THE KING OF FIGHTERS XV Deluxe Edition Hasta 10:59 01/12/2022 84.99 €50.99 €40%
THE KING OF FIGHTERS XV Standard Edition Hasta 10:59 01/12/2022 59.99 €29.99 €50%
The Last Oricru Hasta 10:59 01/12/2022 39.99 €29.99 €25%
The Outer Worlds Hasta 10:59 01/12/2022 59.99 €19.79 €67%
The Park Hasta 10:59 29/11/2022 12.99 €5.19 €60%
The Quarry - Edición Deluxe Hasta 10:59 01/12/2022 84.99 €42.49 €50%
The Quarry para Xbox One Hasta 10:59 01/12/2022 69.99 €34.99 €50%
The Quarry para Xbox Series X|S Hasta 10:59 01/12/2022 74.99 €37.49 €50%
The Sinking City Hasta 10:59 01/12/2022 49.99 €9.99 €80%
The Sinking City Xbox Series X|S Deluxe Edition Hasta 10:59 01/12/2022 64.99 €19.49 €70%
The Surge 2 Hasta 10:59 01/12/2022 29.99 €7.49 €75%
The Survivalists - Deluxe Edition Hasta 10:59 01/12/2022 26.99 €6.74 €75%
The Walking Dead: The Telltale Definitive Series Hasta 10:59 01/12/2022 49.99 €24.99 €50%
The Witch's House MV Hasta 10:59 29/11/2022 14.99 €13.49 €10%
The Witcher 3: Wild Hunt Hasta 10:59 01/12/2022 29.99 €5.99 €80%
The Witcher 3: Wild Hunt - Game of the Year Edition Hasta 10:59 01/12/2022 49.99 €9.99 €80%
The Yakuza Remastered Collection Hasta 10:59 01/12/2022 39.99 €13.99 €65%
They Are Billions Hasta 10:59 29/11/2022 29.99 €8.99 €70%
Thief Hasta 10:59 01/12/2022 19.98 €2.99 €85%
Thronebreaker: The Witcher Tales Hasta 10:59 01/12/2022 19.99 €5.99 €70%
Tina Chiquitina asalta la mazmorra del dragón: una aventura única Hasta 10:59 01/12/2022 9.99 €4.99 €50%
Tiny Tina's Wonderlands Hasta 10:59 01/12/2022 69.99 €34.99 €50%
Tiny Tina's Wonderlands: Edición Caótico genial Hasta 10:59 01/12/2022 89.99 €44.99 €50%
Tiny Tina's Wonderlands: Edición Siguiente nivel Hasta 10:59 01/12/2022 74.99 €37.49 €50%
Titan Quest Hasta 10:59 01/12/2022 29.99 €7.49 €75%
Titanfall 2 Hasta 10:59 01/12/2022 19.99 €3.99 €80%
Titanfall 2: Ultimate Edition Hasta 10:59 01/12/2022 29.99 €5.99 €80%
Tom Clancy's Ghost Recon Breakpoint Hasta 10:59 01/12/2022 69.99 €13.99 €80%
Tom Clancy's Ghost Recon Breakpoint Deluxe Edition Hasta 10:59 01/12/2022 79.99 €19.99 €75%
Tom Clancy's Ghost Recon Breakpoint Ultimate Edition Hasta 10:59 01/12/2022 119.99 €29.99 €75%
Tom Clancy's Rainbow Six Extraction United Bundle Hasta 10:59 01/12/2022 69.99 €27.99 €60%
Tom Clancy's Rainbow Six Siege Operator Edition Hasta 10:59 01/12/2022 69.99 €27.99 €60%
Tom Clancy's The Division 2 Hasta 10:59 01/12/2022 29.99 €8.99 €70%
Tom Clancy’s Rainbow Six Extraction Hasta 10:59 01/12/2022 49.99 €19.99 €60%
Tomb Raider: Definitive Edition Hasta 10:59 01/12/2022 19.99 €4.99 €75%
Tomb Raider: Definitive Survivor Trilogy Hasta 10:59 01/12/2022 49.99 €19.99 €60%
Torchlight II Hasta 10:59 01/12/2022 19.99 €5.99 €70%
Torchlight III Hasta 10:59 01/12/2022 39.99 €11.99 €70%
Torment: Tides of Numenera Hasta 10:59 01/12/2022 29.99 €8.99 €70%
Tour de France 2022 Xbox One Hasta 10:59 01/12/2022 49.99 €24.99 €50%
Tour de France 2022 Xbox Series X|S Hasta 10:59 01/12/2022 59.99 €29.99 €50%
Train Life: A Railway Simulator Hasta 10:59 01/12/2022 29.99 €20.99 €30%
Train Sim World 3: Deluxe Edition Hasta 10:59 01/12/2022 59.99 €44.99 €25%
TRANSFORMERS: CAMPO DE BATALLA - Edición Completa Hasta 10:59 01/12/2022 29.99 €11.99 €60%
Trilogía Mafia Hasta 10:59 01/12/2022 59.99 €23.99 €60%
TRIVIAL PURSUIT Live! 2 Hasta 10:59 01/12/2022 19.99 €9.99 €50%
Tropico 5 - Complete Collection Hasta 10:59 01/12/2022 34.99 €19.24 €45%
Tropico 6 - Next Gen Edition Hasta 10:59 01/12/2022 49.99 €22.49 €55%
TT Isle of Man Ride on the Edge 2 Hasta 10:59 01/12/2022 39.99 €11.99 €70%
Twelve Minutes Hasta 10:59 01/12/2022 24.99 €14.99 €40%
Twin Mirror Hasta 10:59 01/12/2022 29.99 €5.99 €80%
UFC 4 Hasta 10:59 01/12/2022 69.99 €13.99 €80%
UFC 4 Deluxe Edition Hasta 10:59 01/12/2022 79.99 €15.99 €80%
Ultimate Edition de Tom Clancy's Ghost Recon Wildlands Hasta 10:59 01/12/2022 99.99 €24.99 €75%
ULTIMATE MARVEL VS. CAPCOM 3 Hasta 10:59 01/12/2022 24.99 €9.99 €60%
Undead Horde Hasta 10:59 29/11/2022 16.99 €5.09 €70%
UNO Hasta 10:59 01/12/2022 9.99 €3.99 €60%
Unravel Two Hasta 10:59 01/12/2022 19.99 €4.99 €75%
Valkyria Chronicles 4 Hasta 10:59 01/12/2022 29.99 €7.49 €75%
Vampire: The Masquerade - Swansong Xbox One Hasta 10:59 01/12/2022 59.99 €29.99 €50%
Vampire: The Masquerade - Swansong Xbox Series X|S Hasta 10:59 01/12/2022 59.99 €29.99 €50%
Vikings - Wolves of Midgard Hasta 10:59 01/12/2022 29.99 €11.99 €60%
Warhammer 40,000: Mechanicus Hasta 10:59 01/12/2022 39.99 €9.99 €75%
Warhammer: Chaosbane Slayer Edition Xbox One Hasta 10:59 01/12/2022 59.99 €8.99 €85%
Warhammer: Chaosbane Slayer Edition Xbox Series X|S Hasta 10:59 01/12/2022 59.99 €8.99 €85%
Wasteland 2: Director's Cut Hasta 10:59 01/12/2022 24.99 €6.24 €75%
Wasteland 3 Colorado Collection Hasta 10:59 01/12/2022 49.99 €12.49 €75%
Wasteland Remastered Hasta 10:59 01/12/2022 14.99 €2.99 €80%
Watch Dogs 2 Hasta 10:59 01/12/2022 69.99 €13.99 €80%
Watch Dogs 2 - Edición Deluxe Hasta 10:59 01/12/2022 79.99 €15.99 €80%
Watch Dogs: Legion Hasta 10:59 01/12/2022 69.99 €17.49 €75%
Watch Dogs: Legion - Gold Edition Hasta 10:59 01/12/2022 99.99 €29.99 €70%
Way of the Hunter Hasta 10:59 01/12/2022 39.99 €31.99 €20%
Werewolf: The Apocalypse - Earthblood Xbox One Hasta 10:59 01/12/2022 49.99 €9.99 €80%
Werewolf: The Apocalypse - Earthblood Xbox Series X|S Hasta 10:59 01/12/2022 49.99 €9.99 €80%
Wolfenstein : The Two-Pack Hasta 10:59 01/12/2022 29.99 €8.99 €70%
Wolfenstein II: The New Colossus Hasta 10:59 01/12/2022 39.99 €5.99 €85%
Wolfenstein II: The New Colossus Digital Deluxe Edition Hasta 10:59 01/12/2022 69.99 €10.49 €85%
Wolfenstein: Alt History Collection Hasta 10:59 01/12/2022 69.99 €13.99 €80%
Wolfenstein: Youngblood Hasta 10:59 01/12/2022 19.99 €3.99 €80%
Wolfenstein: Youngblood Deluxe Edition Hasta 10:59 01/12/2022 29.99 €5.99 €80%
World of Warships: Legends — ¡El ágil De Grasse! Hasta 10:59 01/12/2022 39.99 €19.99 €50%
World of World of Warships: Legends — El poder de la independencia Hasta 10:59 01/12/2022 69.99 €34.99 €50%
World War Z: Aftermath Hasta 10:59 01/12/2022 39.99 €19.99 €50%
World War Z: Aftermath - Deluxe Edition Hasta 10:59 01/12/2022 49.99 €24.99 €50%
Worms Battlegrounds + Worms W.M.D Hasta 10:59 01/12/2022 34.99 €6.99 €80%
Worms Rumble - Digital Deluxe Edition Hasta 10:59 01/12/2022 21.99 €4.39 €80%
Wreckfest Hasta 10:59 01/12/2022 29.99 €11.99 €60%
WWE 2K Battlegrounds Hasta 10:59 01/12/2022 39.99 €15.99 €60%
WWE 2K22 Edición nWo 4-Life Hasta 10:59 01/12/2022 119.99 €59.99 €50%
WWE 2K22 para Xbox One Hasta 10:59 01/12/2022 69.99 €20.99 €70%
WWE 2K22 para Xbox Series X|S Hasta 10:59 01/12/2022 74.99 €24.74 €67%
XCOM 2 Collection Hasta 10:59 01/12/2022 89.99 €8.99 €90%
Xuan Yuan Sword 7 Hasta 10:59 29/11/2022 49.99 €29.99 €40%
Yakuza 0 Hasta 10:59 01/12/2022 19.99 €3.99 €80%
Yakuza 3 Remastered Hasta 10:59 01/12/2022 19.99 €6.99 €65%
Yakuza 4 Remastered Hasta 10:59 01/12/2022 19.99 €6.99 €65%
Yakuza 5 Remastered Hasta 10:59 01/12/2022 19.99 €6.99 €65%
Yakuza 6: The Song of Life Hasta 10:59 01/12/2022 19.99 €3.99 €80%
Yakuza Kiwami Hasta 10:59 01/12/2022 19.99 €3.99 €80%
Yakuza Kiwami 2 Hasta 10:59 01/12/2022 19.99 €3.99 €80%
Yakuza: Like a Dragon Hero Edition Hasta 10:59 01/12/2022 69.99 €20.99 €70%
Year 2 Gold Edition de Tom Clancy's Ghost Recon Wildlands Hasta 10:59 01/12/2022 69.99 €17.49 €75%
Yoku's Island Express Hasta 10:59 29/11/2022 19.99 €4.99 €75%
Yonder: The Cloud Catcher Chronicles Hasta 10:59 29/11/2022 29.99 €11.99 €60%
Yonder: The Cloud Catcher Chronicles - XBS|X Hasta 10:59 29/11/2022 29.99 €11.99 €60%
Yooka-Laylee: Buddy Duo Bundle Hasta 10:59 01/12/2022 44.99 €8.99 €80%
Zombieland: Double Tap- Road Trip Hasta 10:59 01/12/2022 39.99 €5.99 €85%
Zoo Tycoon Hasta 10:59 01/12/2022 59.98 €29.99 €50%
Zoo Tycoon: Ultimate Animal Collection Hasta 10:59 01/12/2022 19.99 €9.99 €50%
Zorro The Chronicles Xbox One Hasta 10:59 01/12/2022 39.99 €27.99 €30%
Zorro The Chronicles Xbox Series X|S Hasta 10:59 01/12/2022 39.99 €27.99 €30%


22/11/2022